sensor_id;sensor_type;location;lat;lon;timestamp;pressure;altitude;pressure_sealevel;temperature;humidity
69058;BME280;56128;37.534;-122.308;2023-07-29T00:00:37;101351.56;;;24.45;62.83
69058;BME280;56128;37.534;-122.308;2023-07-29T00:03:03;101351.56;;;24.45;63.66
69058;BME280;56128;37.534;-122.308;2023-07-29T00:05:28;101353.00;;;24.41;63.76
69058;BME280;56128;37.534;-122.308;2023-07-29T00:07:54;101349.25;;;24.27;63.54
69058;BME280;56128;37.534;-122.308;2023-07-29T00:10:20;101345.63;;;24.20;64.69
69058;BME280;56128;37.534;-122.308;2023-07-29T00:12:46;101341.66;;;24.22;64.98
69058;BME280;56128;37.534;-122.308;2023-07-29T00:15:11;101341.56;;;24.15;65.31
69058;BME280;56128;37.534;-122.308;2023-07-29T00:17:37;101341.88;;;24.06;65.09
69058;BME280;56128;37.534;-122.308;2023-07-29T00:20:03;101340.38;;;24.03;65.04
69058;BME280;56128;37.534;-122.308;2023-07-29T00:22:30;101348.03;;;23.93;64.31
69058;BME280;56128;37.534;-122.308;2023-07-29T00:24:56;101341.63;;;23.86;65.28
69058;BME280;56128;37.534;-122.308;2023-07-29T00:27:25;101334.34;;;23.78;63.78
69058;BME280;56128;37.534;-122.308;2023-07-29T00:29:51;101333.81;;;23.67;63.57
69058;BME280;56128;37.534;-122.308;2023-07-29T00:32:17;101327.03;;;23.63;64.92
69058;BME280;56128;37.534;-122.308;2023-07-29T00:34:43;101328.06;;;23.47;64.37
69058;BME280;56128;37.534;-122.308;2023-07-29T00:37:09;101325.63;;;23.38;64.61
69058;BME280;56128;37.534;-122.308;2023-07-29T00:39:36;101325.16;;;23.34;64.52
69058;BME280;56128;37.534;-122.308;2023-07-29T00:42:05;101329.00;;;23.25;63.96
69058;BME280;56128;37.534;-122.308;2023-07-29T00:44:31;101341.38;;;23.12;63.99
69058;BME280;56128;37.534;-122.308;2023-07-29T00:47:17;101334.97;;;23.05;64.23
69058;BME280;56128;37.534;-122.308;2023-07-29T00:49:44;101330.66;;;22.96;64.78
69058;BME280;56128;37.534;-122.308;2023-07-29T00:52:10;101335.72;;;22.84;65.35
69058;BME280;56128;37.534;-122.308;2023-07-29T00:54:40;101333.59;;;22.71;66.07
69058;BME280;56128;37.534;-122.308;2023-07-29T00:57:09;101343.56;;;22.64;66.07
69058;BME280;56128;37.534;-122.308;2023-07-29T00:59:38;101331.06;;;22.46;66.24
69058;BME280;56128;37.534;-122.308;2023-07-29T01:02:05;101338.28;;;22.39;66.94
69058;BME280;56128;37.534;-122.308;2023-07-29T01:04:31;101345.44;;;22.32;67.10
69058;BME280;56128;37.534;-122.308;2023-07-29T01:07:07;101343.81;;;22.23;66.76
69058;BME280;56128;37.534;-122.308;2023-07-29T01:09:41;101351.75;;;22.01;68.19
69058;BME280;56128;37.534;-122.308;2023-07-29T01:12:22;101354.22;;;21.87;70.20
69058;BME280;56128;37.534;-122.308;2023-07-29T01:17:23;101355.69;;;21.59;73.72
69058;BME280;56128;37.534;-122.308;2023-07-29T01:22:18;101356.91;;;21.39;76.17
69058;BME280;56128;37.534;-122.308;2023-07-29T01:24:44;101361.41;;;21.16;77.58
69058;BME280;56128;37.534;-122.308;2023-07-29T01:27:10;101359.50;;;21.08;78.95
69058;BME280;56128;37.534;-122.308;2023-07-29T01:29:36;101368.91;;;20.97;78.74
69058;BME280;56128;37.534;-122.308;2023-07-29T01:32:04;101362.78;;;20.87;80.43
69058;BME280;56128;37.534;-122.308;2023-07-29T01:34:39;101362.72;;;20.70;81.86
69058;BME280;56128;37.534;-122.308;2023-07-29T01:37:06;101365.28;;;20.64;82.50
69058;BME280;56128;37.534;-122.308;2023-07-29T01:39:34;101363.59;;;20.54;83.28
69058;BME280;56128;37.534;-122.308;2023-07-29T01:42:02;101367.81;;;20.40;84.84
69058;BME280;56128;37.534;-122.308;2023-07-29T01:44:28;101364.38;;;20.30;85.92
69058;BME280;56128;37.534;-122.308;2023-07-29T01:46:55;101367.22;;;20.20;86.27
69058;BME280;56128;37.534;-122.308;2023-07-29T01:49:21;101377.94;;;20.14;87.56
69058;BME280;56128;37.534;-122.308;2023-07-29T01:51:47;101382.81;;;20.02;88.39
69058;BME280;56128;37.534;-122.308;2023-07-29T01:54:13;101394.13;;;19.89;88.82
69058;BME280;56128;37.534;-122.308;2023-07-29T01:56:38;101395.47;;;19.85;90.12
69058;BME280;56128;37.534;-122.308;2023-07-29T01:59:04;101393.19;;;19.80;89.23
69058;BME280;56128;37.534;-122.308;2023-07-29T02:01:30;101395.25;;;19.78;90.97
69058;BME280;56128;37.534;-122.308;2023-07-29T02:03:56;101395.03;;;19.71;91.14
69058;BME280;56128;37.534;-122.308;2023-07-29T02:06:22;101398.41;;;19.65;90.70
69058;BME280;56128;37.534;-122.308;2023-07-29T02:08:48;101404.97;;;19.54;91.71
69058;BME280;56128;37.534;-122.308;2023-07-29T02:11:14;101409.50;;;19.45;92.24
69058;BME280;56128;37.534;-122.308;2023-07-29T02:13:39;101407.72;;;19.36;91.94
69058;BME280;56128;37.534;-122.308;2023-07-29T02:16:05;101402.97;;;19.30;92.48
69058;BME280;56128;37.534;-122.308;2023-07-29T02:18:31;101414.66;;;19.30;93.61
69058;BME280;56128;37.534;-122.308;2023-07-29T02:20:57;101410.31;;;19.20;93.41
69058;BME280;56128;37.534;-122.308;2023-07-29T02:23:23;101415.88;;;19.10;93.89
69058;BME280;56128;37.534;-122.308;2023-07-29T02:25:48;101430.28;;;18.92;94.47
69058;BME280;56128;37.534;-122.308;2023-07-29T02:28:15;101430.47;;;18.81;95.48
69058;BME280;56128;37.534;-122.308;2023-07-29T02:30:41;101439.00;;;18.68;96.65
69058;BME280;56128;37.534;-122.308;2023-07-29T02:33:09;101428.09;;;18.60;98.19
69058;BME280;56128;37.534;-122.308;2023-07-29T02:35:35;101430.84;;;18.50;99.00
69058;BME280;56128;37.534;-122.308;2023-07-29T02:38:01;101434.78;;;18.38;100.00
69058;BME280;56128;37.534;-122.308;2023-07-29T02:40:27;101434.88;;;18.18;100.00
69058;BME280;56128;37.534;-122.308;2023-07-29T02:42:54;101434.63;;;18.11;100.00
69058;BME280;56128;37.534;-122.308;2023-07-29T02:45:20;101441.09;;;18.00;100.00
69058;BME280;56128;37.534;-122.308;2023-07-29T02:47:46;101436.28;;;17.94;100.00
69058;BME280;56128;37.534;-122.308;2023-07-29T02:50:12;101437.97;;;17.85;100.00
69058;BME280;56128;37.534;-122.308;2023-07-29T02:52:38;101432.47;;;17.77;100.00
69058;BME280;56128;37.534;-122.308;2023-07-29T02:55:04;101434.50;;;17.65;100.00
69058;BME280;56128;37.534;-122.308;2023-07-29T02:57:30;101437.97;;;17.48;100.00
69058;BME280;56128;37.534;-122.308;2023-07-29T02:59:55;101437.84;;;17.40;100.00
69058;BME280;56128;37.534;-122.308;2023-07-29T03:02:21;101435.31;;;17.28;100.00
69058;BME280;56128;37.534;-122.308;2023-07-29T03:04:47;101434.47;;;17.18;100.00
69058;BME280;56128;37.534;-122.308;2023-07-29T03:07:13;101432.34;;;17.12;100.00
69058;BME280;56128;37.534;-122.308;2023-07-29T03:09:40;101434.06;;;17.03;100.00
69058;BME280;56128;37.534;-122.308;2023-07-29T03:12:07;101432.63;;;16.89;100.00
69058;BME280;56128;37.534;-122.308;2023-07-29T03:14:33;101441.97;;;16.75;100.00
69058;BME280;56128;37.534;-122.308;2023-07-29T03:17:02;101453.38;;;16.69;100.00
69058;BME280;56128;37.534;-122.308;2023-07-29T03:19:27;101449.19;;;16.55;100.00
69058;BME280;56128;37.534;-122.308;2023-07-29T03:21:53;101450.03;;;16.46;100.00
69058;BME280;56128;37.534;-122.308;2023-07-29T03:24:19;101449.03;;;16.37;100.00
69058;BME280;56128;37.534;-122.308;2023-07-29T03:26:45;101449.72;;;16.29;100.00
69058;BME280;56128;37.534;-122.308;2023-07-29T03:29:10;101447.84;;;16.20;100.00
69058;BME280;56128;37.534;-122.308;2023-07-29T03:31:37;101449.50;;;16.11;100.00
69058;BME280;56128;37.534;-122.308;2023-07-29T03:34:03;101456.56;;;16.02;100.00
69058;BME280;56128;37.534;-122.308;2023-07-29T03:36:29;101450.88;;;15.96;100.00
69058;BME280;56128;37.534;-122.308;2023-07-29T03:38:56;101453.66;;;15.84;100.00
69058;BME280;56128;37.534;-122.308;2023-07-29T03:41:23;101460.44;;;15.79;100.00
69058;BME280;56128;37.534;-122.308;2023-07-29T03:43:49;101463.69;;;15.72;100.00
69058;BME280;56128;37.534;-122.308;2023-07-29T03:46:15;101469.84;;;15.63;100.00
69058;BME280;56128;37.534;-122.308;2023-07-29T03:48:44;101475.78;;;15.57;100.00
69058;BME280;56128;37.534;-122.308;2023-07-29T03:51:10;101475.59;;;15.49;100.00
69058;BME280;56128;37.534;-122.308;2023-07-29T03:53:36;101479.06;;;15.39;100.00
69058;BME280;56128;37.534;-122.308;2023-07-29T03:56:02;101477.16;;;15.30;100.00
69058;BME280;56128;37.534;-122.308;2023-07-29T03:58:28;101476.56;;;15.26;100.00
69058;BME280;56128;37.534;-122.308;2023-07-29T04:00:53;101488.47;;;15.24;100.00
69058;BME280;56128;37.534;-122.308;2023-07-29T04:03:19;101482.75;;;15.17;100.00
69058;BME280;56128;37.534;-122.308;2023-07-29T04:05:45;101488.75;;;15.09;100.00
69058;BME280;56128;37.534;-122.308;2023-07-29T04:08:11;101498.09;;;15.05;100.00
69058;BME280;56128;37.534;-122.308;2023-07-29T04:10:37;101497.63;;;15.00;100.00
69058;BME280;56128;37.534;-122.308;2023-07-29T04:13:03;101494.47;;;14.95;100.00
69058;BME280;56128;37.534;-122.308;2023-07-29T04:15:29;101495.94;;;14.88;100.00
69058;BME280;56128;37.534;-122.308;2023-07-29T04:17:55;101501.63;;;14.85;100.00
69058;BME280;56128;37.534;-122.308;2023-07-29T04:20:21;101501.38;;;14.76;100.00
69058;BME280;56128;37.534;-122.308;2023-07-29T04:22:47;101501.28;;;14.67;100.00
69058;BME280;56128;37.534;-122.308;2023-07-29T04:25:13;101515.09;;;14.62;100.00
69058;BME280;56128;37.534;-122.308;2023-07-29T04:27:39;101513.75;;;14.56;100.00
69058;BME280;56128;37.534;-122.308;2023-07-29T04:30:05;101510.44;;;14.53;100.00
69058;BME280;56128;37.534;-122.308;2023-07-29T04:32:31;101515.34;;;14.48;100.00
69058;BME280;56128;37.534;-122.308;2023-07-29T04:34:56;101520.53;;;14.39;100.00
69058;BME280;56128;37.534;-122.308;2023-07-29T04:37:22;101512.81;;;14.35;100.00
69058;BME280;56128;37.534;-122.308;2023-07-29T04:39:48;101524.69;;;14.32;100.00
69058;BME280;56128;37.534;-122.308;2023-07-29T04:42:14;101523.31;;;14.26;100.00
69058;BME280;56128;37.534;-122.308;2023-07-29T04:44:39;101530.78;;;14.23;100.00
69058;BME280;56128;37.534;-122.308;2023-07-29T04:47:07;101536.41;;;14.20;100.00
69058;BME280;56128;37.534;-122.308;2023-07-29T04:49:33;101544.72;;;14.17;100.00
69058;BME280;56128;37.534;-122.308;2023-07-29T04:51:59;101538.84;;;14.11;100.00
69058;BME280;56128;37.534;-122.308;2023-07-29T04:54:24;101537.38;;;14.07;100.00
69058;BME280;56128;37.534;-122.308;2023-07-29T04:56:51;101542.03;;;14.05;100.00
69058;BME280;56128;37.534;-122.308;2023-07-29T04:59:16;101546.06;;;14.00;100.00
69058;BME280;56128;37.534;-122.308;2023-07-29T05:01:42;101546.41;;;13.95;100.00
69058;BME280;56128;37.534;-122.308;2023-07-29T05:04:08;101543.00;;;13.93;100.00
69058;BME280;56128;37.534;-122.308;2023-07-29T05:06:34;101533.44;;;13.89;100.00
69058;BME280;56128;37.534;-122.308;2023-07-29T05:09:12;101548.88;;;13.87;100.00
69058;BME280;56128;37.534;-122.308;2023-07-29T05:11:38;101543.97;;;13.80;100.00
69058;BME280;56128;37.534;-122.308;2023-07-29T05:14:03;101550.31;;;13.79;100.00
69058;BME280;56128;37.534;-122.308;2023-07-29T05:16:31;101553.34;;;13.75;100.00
69058;BME280;56128;37.534;-122.308;2023-07-29T05:18:57;101552.09;;;13.68;100.00
69058;BME280;56128;37.534;-122.308;2023-07-29T05:21:23;101564.81;;;13.66;100.00
69058;BME280;56128;37.534;-122.308;2023-07-29T05:23:49;101568.38;;;13.66;100.00
69058;BME280;56128;37.534;-122.308;2023-07-29T05:26:14;101565.94;;;13.63;100.00
69058;BME280;56128;37.534;-122.308;2023-07-29T05:28:40;101564.41;;;13.59;100.00
69058;BME280;56128;37.534;-122.308;2023-07-29T05:31:06;101568.09;;;13.58;100.00
69058;BME280;56128;37.534;-122.308;2023-07-29T05:33:32;101563.06;;;13.53;100.00
69058;BME280;56128;37.534;-122.308;2023-07-29T05:35:58;101568.78;;;13.48;100.00
69058;BME280;56128;37.534;-122.308;2023-07-29T05:38:23;101564.75;;;13.43;100.00
69058;BME280;56128;37.534;-122.308;2023-07-29T05:40:49;101566.69;;;13.41;100.00
69058;BME280;56128;37.534;-122.308;2023-07-29T05:43:15;101564.31;;;13.36;100.00
69058;BME280;56128;37.534;-122.308;2023-07-29T05:45:41;101563.78;;;13.31;100.00
69058;BME280;56128;37.534;-122.308;2023-07-29T05:48:07;101567.56;;;13.28;100.00
69058;BME280;56128;37.534;-122.308;2023-07-29T05:50:32;101565.22;;;13.24;100.00
69058;BME280;56128;37.534;-122.308;2023-07-29T05:52:58;101566.31;;;13.21;100.00
69058;BME280;56128;37.534;-122.308;2023-07-29T05:55:24;101567.66;;;13.15;100.00
69058;BME280;56128;37.534;-122.308;2023-07-29T05:57:50;101562.47;;;13.12;100.00
69058;BME280;56128;37.534;-122.308;2023-07-29T06:00:16;101569.81;;;13.10;100.00
69058;BME280;56128;37.534;-122.308;2023-07-29T06:02:41;101563.69;;;13.08;100.00
69058;BME280;56128;37.534;-122.308;2023-07-29T06:05:07;101561.25;;;13.05;100.00
69058;BME280;56128;37.534;-122.308;2023-07-29T06:07:33;101560.50;;;13.03;100.00
69058;BME280;56128;37.534;-122.308;2023-07-29T06:09:59;101556.97;;;13.03;100.00
69058;BME280;56128;37.534;-122.308;2023-07-29T06:12:25;101557.16;;;12.99;100.00
69058;BME280;56128;37.534;-122.308;2023-07-29T06:14:51;101556.41;;;12.97;100.00
69058;BME280;56128;37.534;-122.308;2023-07-29T06:17:17;101559.97;;;12.98;100.00
69058;BME280;56128;37.534;-122.308;2023-07-29T06:19:43;101563.88;;;12.94;100.00
69058;BME280;56128;37.534;-122.308;2023-07-29T06:22:09;101555.91;;;12.92;100.00
69058;BME280;56128;37.534;-122.308;2023-07-29T06:24:35;101555.81;;;12.94;100.00
69058;BME280;56128;37.534;-122.308;2023-07-29T06:27:01;101545.16;;;12.92;100.00
69058;BME280;56128;37.534;-122.308;2023-07-29T06:29:27;101544.94;;;12.95;100.00
69058;BME280;56128;37.534;-122.308;2023-07-29T06:31:52;101548.59;;;12.94;100.00
69058;BME280;56128;37.534;-122.308;2023-07-29T06:34:19;101539.69;;;12.94;100.00
69058;BME280;56128;37.534;-122.308;2023-07-29T06:36:45;101546.25;;;12.90;100.00
69058;BME280;56128;37.534;-122.308;2023-07-29T06:39:11;101549.03;;;12.88;100.00
69058;BME280;56128;37.534;-122.308;2023-07-29T06:41:37;101556.47;;;12.85;100.00
69058;BME280;56128;37.534;-122.308;2023-07-29T06:44:03;101555.75;;;12.82;100.00
69058;BME280;56128;37.534;-122.308;2023-07-29T06:46:29;101554.03;;;12.81;100.00
69058;BME280;56128;37.534;-122.308;2023-07-29T06:48:55;101560.13;;;12.83;100.00
69058;BME280;56128;37.534;-122.308;2023-07-29T06:51:21;101554.88;;;12.82;100.00
69058;BME280;56128;37.534;-122.308;2023-07-29T06:53:46;101556.59;;;12.83;100.00
69058;BME280;56128;37.534;-122.308;2023-07-29T06:56:12;101553.16;;;12.81;100.00
69058;BME280;56128;37.534;-122.308;2023-07-29T06:58:38;101553.25;;;12.79;100.00
69058;BME280;56128;37.534;-122.308;2023-07-29T07:01:04;101548.13;;;12.76;100.00
69058;BME280;56128;37.534;-122.308;2023-07-29T07:03:29;101544.13;;;12.82;100.00
69058;BME280;56128;37.534;-122.308;2023-07-29T07:05:55;101551.66;;;12.77;100.00
69058;BME280;56128;37.534;-122.308;2023-07-29T07:08:21;101557.78;;;12.79;100.00
69058;BME280;56128;37.534;-122.308;2023-07-29T07:10:47;101554.22;;;12.78;100.00
69058;BME280;56128;37.534;-122.308;2023-07-29T07:13:13;101550.47;;;12.81;100.00
69058;BME280;56128;37.534;-122.308;2023-07-29T07:15:38;101552.31;;;12.80;100.00
69058;BME280;56128;37.534;-122.308;2023-07-29T07:18:04;101559.72;;;12.77;100.00
69058;BME280;56128;37.534;-122.308;2023-07-29T07:20:30;101550.81;;;12.76;100.00
69058;BME280;56128;37.534;-122.308;2023-07-29T07:22:56;101552.50;;;12.77;100.00
69058;BME280;56128;37.534;-122.308;2023-07-29T07:25:22;101548.22;;;12.75;100.00
69058;BME280;56128;37.534;-122.308;2023-07-29T07:27:48;101548.13;;;12.76;100.00
69058;BME280;56128;37.534;-122.308;2023-07-29T07:30:14;101542.00;;;12.74;100.00
69058;BME280;56128;37.534;-122.308;2023-07-29T07:32:40;101542.84;;;12.75;100.00
69058;BME280;56128;37.534;-122.308;2023-07-29T07:37:50;101531.50;;;12.71;100.00
69058;BME280;56128;37.534;-122.308;2023-07-29T07:40:15;101536.75;;;12.73;100.00
69058;BME280;56128;37.534;-122.308;2023-07-29T07:42:41;101541.25;;;12.72;100.00
69058;BME280;56128;37.534;-122.308;2023-07-29T07:45:07;101539.66;;;12.70;100.00
69058;BME280;56128;37.534;-122.308;2023-07-29T07:47:33;101530.75;;;12.69;100.00
69058;BME280;56128;37.534;-122.308;2023-07-29T07:49:59;101532.56;;;12.69;100.00
69058;BME280;56128;37.534;-122.308;2023-07-29T07:52:24;101531.06;;;12.64;100.00
69058;BME280;56128;37.534;-122.308;2023-07-29T07:54:53;101533.88;;;12.63;100.00
69058;BME280;56128;37.534;-122.308;2023-07-29T07:57:22;101527.53;;;12.64;100.00
69058;BME280;56128;37.534;-122.308;2023-07-29T07:59:48;101537.53;;;12.62;100.00
69058;BME280;56128;37.534;-122.308;2023-07-29T08:02:14;101544.81;;;12.60;100.00
69058;BME280;56128;37.534;-122.308;2023-07-29T08:04:40;101547.75;;;12.57;100.00
69058;BME280;56128;37.534;-122.308;2023-07-29T08:07:05;101544.31;;;12.55;100.00
69058;BME280;56128;37.534;-122.308;2023-07-29T08:09:31;101541.84;;;12.52;100.00
69058;BME280;56128;37.534;-122.308;2023-07-29T08:11:57;101535.00;;;12.47;100.00
69058;BME280;56128;37.534;-122.308;2023-07-29T08:14:23;101535.31;;;12.43;100.00
69058;BME280;56128;37.534;-122.308;2023-07-29T08:16:48;101538.75;;;12.45;100.00
69058;BME280;56128;37.534;-122.308;2023-07-29T08:19:14;101538.19;;;12.40;100.00
69058;BME280;56128;37.534;-122.308;2023-07-29T08:21:40;101541.75;;;12.40;100.00
69058;BME280;56128;37.534;-122.308;2023-07-29T08:24:06;101536.59;;;12.37;100.00
69058;BME280;56128;37.534;-122.308;2023-07-29T08:26:32;101528.97;;;12.31;100.00
69058;BME280;56128;37.534;-122.308;2023-07-29T08:28:58;101532.75;;;12.28;100.00
69058;BME280;56128;37.534;-122.308;2023-07-29T08:31:24;101531.13;;;12.26;100.00
69058;BME280;56128;37.534;-122.308;2023-07-29T08:33:50;101528.91;;;12.20;100.00
69058;BME280;56128;37.534;-122.308;2023-07-29T08:36:16;101534.50;;;12.16;100.00
69058;BME280;56128;37.534;-122.308;2023-07-29T08:38:41;101533.53;;;12.17;100.00
69058;BME280;56128;37.534;-122.308;2023-07-29T08:41:13;101529.25;;;12.15;100.00
69058;BME280;56128;37.534;-122.308;2023-07-29T08:43:41;101534.91;;;12.10;100.00
69058;BME280;56128;37.534;-122.308;2023-07-29T08:46:09;101529.56;;;12.10;100.00
69058;BME280;56128;37.534;-122.308;2023-07-29T08:48:41;101526.13;;;12.08;100.00
69058;BME280;56128;37.534;-122.308;2023-07-29T08:51:08;101523.78;;;12.04;100.00
69058;BME280;56128;37.534;-122.308;2023-07-29T08:53:34;101527.72;;;11.98;100.00
69058;BME280;56128;37.534;-122.308;2023-07-29T08:56:00;101529.09;;;11.91;100.00
69058;BME280;56128;37.534;-122.308;2023-07-29T08:58:26;101520.84;;;11.94;100.00
69058;BME280;56128;37.534;-122.308;2023-07-29T09:00:52;101522.75;;;11.92;100.00
69058;BME280;56128;37.534;-122.308;2023-07-29T09:03:18;101518.38;;;11.91;100.00
69058;BME280;56128;37.534;-122.308;2023-07-29T09:05:45;101514.72;;;11.92;100.00
69058;BME280;56128;37.534;-122.308;2023-07-29T09:08:11;101522.22;;;11.86;100.00
69058;BME280;56128;37.534;-122.308;2023-07-29T09:10:37;101523.63;;;11.79;100.00
69058;BME280;56128;37.534;-122.308;2023-07-29T09:13:06;101520.28;;;11.76;100.00
69058;BME280;56128;37.534;-122.308;2023-07-29T09:15:33;101523.19;;;11.73;100.00
69058;BME280;56128;37.534;-122.308;2023-07-29T09:18:08;101521.03;;;11.65;100.00
69058;BME280;56128;37.534;-122.308;2023-07-29T09:20:34;101534.88;;;11.59;100.00
69058;BME280;56128;37.534;-122.308;2023-07-29T09:23:00;101529.38;;;11.60;100.00
69058;BME280;56128;37.534;-122.308;2023-07-29T09:25:26;101528.97;;;11.53;100.00
69058;BME280;56128;37.534;-122.308;2023-07-29T09:27:52;101533.00;;;11.46;100.00
69058;BME280;56128;37.534;-122.308;2023-07-29T09:30:23;101534.50;;;11.50;100.00
69058;BME280;56128;37.534;-122.308;2023-07-29T09:32:54;101534.75;;;11.47;100.00
69058;BME280;56128;37.534;-122.308;2023-07-29T09:35:20;101531.50;;;11.42;100.00
69058;BME280;56128;37.534;-122.308;2023-07-29T09:37:46;101529.38;;;11.47;100.00
69058;BME280;56128;37.534;-122.308;2023-07-29T09:40:16;101536.03;;;11.55;100.00
69058;BME280;56128;37.534;-122.308;2023-07-29T09:42:49;101527.97;;;11.42;100.00
69058;BME280;56128;37.534;-122.308;2023-07-29T09:45:25;101526.75;;;11.33;100.00
69058;BME280;56128;37.534;-122.308;2023-07-29T09:47:52;101527.81;;;11.30;100.00
69058;BME280;56128;37.534;-122.308;2023-07-29T09:50:18;101523.41;;;11.29;100.00
69058;BME280;56128;37.534;-122.308;2023-07-29T09:52:44;101516.88;;;11.20;100.00
69058;BME280;56128;37.534;-122.308;2023-07-29T09:55:11;101517.09;;;11.17;100.00
69058;BME280;56128;37.534;-122.308;2023-07-29T09:57:37;101523.41;;;11.16;100.00
69058;BME280;56128;37.534;-122.308;2023-07-29T10:00:04;101518.44;;;11.10;100.00
69058;BME280;56128;37.534;-122.308;2023-07-29T10:02:36;101517.72;;;11.08;100.00
69058;BME280;56128;37.534;-122.308;2023-07-29T10:05:02;101523.81;;;11.10;100.00
69058;BME280;56128;37.534;-122.308;2023-07-29T10:07:29;101519.91;;;11.01;100.00
69058;BME280;56128;37.534;-122.308;2023-07-29T10:09:55;101514.97;;;10.95;100.00
69058;BME280;56128;37.534;-122.308;2023-07-29T10:12:21;101511.53;;;10.93;100.00
69058;BME280;56128;37.534;-122.308;2023-07-29T10:14:47;101516.41;;;10.86;100.00
69058;BME280;56128;37.534;-122.308;2023-07-29T10:17:14;101528.13;;;10.85;100.00
69058;BME280;56128;37.534;-122.308;2023-07-29T10:19:41;101513.19;;;10.81;100.00
69058;BME280;56128;37.534;-122.308;2023-07-29T10:22:08;101520.09;;;10.85;100.00
69058;BME280;56128;37.534;-122.308;2023-07-29T10:24:34;101519.50;;;10.80;100.00
69058;BME280;56128;37.534;-122.308;2023-07-29T10:27:01;101518.88;;;10.77;100.00
69058;BME280;56128;37.534;-122.308;2023-07-29T10:29:28;101523.44;;;10.75;100.00
69058;BME280;56128;37.534;-122.308;2023-07-29T10:31:56;101517.16;;;10.76;100.00
69058;BME280;56128;37.534;-122.308;2023-07-29T10:34:22;101519.03;;;10.74;100.00
69058;BME280;56128;37.534;-122.308;2023-07-29T10:36:49;101519.56;;;10.66;100.00
69058;BME280;56128;37.534;-122.308;2023-07-29T10:39:16;101524.69;;;10.69;100.00
69058;BME280;56128;37.534;-122.308;2023-07-29T10:41:54;101518.50;;;10.68;100.00
69058;BME280;56128;37.534;-122.308;2023-07-29T10:47:11;101520.50;;;10.65;100.00
69058;BME280;56128;37.534;-122.308;2023-07-29T10:49:41;101520.78;;;10.60;100.00
69058;BME280;56128;37.534;-122.308;2023-07-29T10:52:06;101521.94;;;10.56;100.00
69058;BME280;56128;37.534;-122.308;2023-07-29T10:54:45;101515.53;;;10.59;100.00
69058;BME280;56128;37.534;-122.308;2023-07-29T10:57:14;101518.31;;;10.57;100.00
69058;BME280;56128;37.534;-122.308;2023-07-29T10:59:41;101522.06;;;10.54;100.00
69058;BME280;56128;37.534;-122.308;2023-07-29T11:02:17;101531.81;;;10.55;100.00
69058;BME280;56128;37.534;-122.308;2023-07-29T11:04:46;101535.44;;;10.54;100.00
69058;BME280;56128;37.534;-122.308;2023-07-29T11:14:54;101524.28;;;10.48;100.00
69058;BME280;56128;37.534;-122.308;2023-07-29T11:17:20;101529.53;;;10.49;100.00
69058;BME280;56128;37.534;-122.308;2023-07-29T11:19:46;101521.09;;;10.55;100.00
69058;BME280;56128;37.534;-122.308;2023-07-29T11:22:12;101515.75;;;10.55;100.00
69058;BME280;56128;37.534;-122.308;2023-07-29T11:24:37;101510.00;;;10.62;100.00
69058;BME280;56128;37.534;-122.308;2023-07-29T11:27:03;101517.06;;;10.63;100.00
69058;BME280;56128;37.534;-122.308;2023-07-29T11:29:29;101511.91;;;10.60;100.00
69058;BME280;56128;37.534;-122.308;2023-07-29T11:31:55;101509.81;;;10.65;100.00
69058;BME280;56128;37.534;-122.308;2023-07-29T11:34:30;101511.53;;;10.66;100.00
69058;BME280;56128;37.534;-122.308;2023-07-29T11:36:56;101508.28;;;10.61;100.00
69058;BME280;56128;37.534;-122.308;2023-07-29T11:39:22;101511.91;;;10.60;100.00
69058;BME280;56128;37.534;-122.308;2023-07-29T11:41:48;101518.44;;;10.55;100.00
69058;BME280;56128;37.534;-122.308;2023-07-29T11:44:17;101522.50;;;10.61;100.00
69058;BME280;56128;37.534;-122.308;2023-07-29T11:46:44;101522.63;;;10.60;100.00
69058;BME280;56128;37.534;-122.308;2023-07-29T11:49:10;101524.63;;;10.56;100.00
69058;BME280;56128;37.534;-122.308;2023-07-29T11:51:36;101519.38;;;10.54;100.00
69058;BME280;56128;37.534;-122.308;2023-07-29T11:54:02;101524.91;;;10.51;100.00
69058;BME280;56128;37.534;-122.308;2023-07-29T11:56:29;101522.25;;;10.51;100.00
69058;BME280;56128;37.534;-122.308;2023-07-29T11:58:55;101521.28;;;10.52;100.00
69058;BME280;56128;37.534;-122.308;2023-07-29T12:01:22;101518.72;;;10.51;100.00
69058;BME280;56128;37.534;-122.308;2023-07-29T12:03:48;101524.19;;;10.49;100.00
69058;BME280;56128;37.534;-122.308;2023-07-29T12:06:15;101521.50;;;10.49;100.00
69058;BME280;56128;37.534;-122.308;2023-07-29T12:08:41;101527.91;;;10.47;100.00
69058;BME280;56128;37.534;-122.308;2023-07-29T12:11:07;101537.06;;;10.43;100.00
69058;BME280;56128;37.534;-122.308;2023-07-29T12:13:33;101532.09;;;10.36;100.00
69058;BME280;56128;37.534;-122.308;2023-07-29T12:16:02;101534.50;;;10.41;100.00
69058;BME280;56128;37.534;-122.308;2023-07-29T12:18:32;101536.78;;;10.33;100.00
69058;BME280;56128;37.534;-122.308;2023-07-29T12:20:58;101537.84;;;10.30;100.00
69058;BME280;56128;37.534;-122.308;2023-07-29T12:23:24;101541.25;;;10.32;100.00
69058;BME280;56128;37.534;-122.308;2023-07-29T12:25:57;101542.19;;;10.31;100.00
69058;BME280;56128;37.534;-122.308;2023-07-29T12:28:23;101545.19;;;10.27;100.00